createdAt,value
2022-12-03T00:00:19.863Z,0
2022-12-03T00:03:13.055Z,-0.1
2022-12-03T00:06:11.774Z,0
2022-12-03T00:09:11.794Z,-0.1
2022-12-03T00:12:11.834Z,-0.1
2022-12-03T00:15:11.923Z,-0.1
2022-12-03T00:18:11.945Z,-0.1
2022-12-03T00:21:11.709Z,-0.1
2022-12-03T00:24:11.849Z,-0.1
2022-12-03T00:27:11.806Z,-0.1
2022-12-03T00:30:11.907Z,-0.1
2022-12-03T00:33:11.746Z,-0.1
2022-12-03T00:36:11.808Z,-0.1
2022-12-03T00:39:11.765Z,-0.1
2022-12-03T00:42:11.768Z,-0.1
2022-12-03T00:45:12.006Z,-0.1
2022-12-03T00:48:11.825Z,-0.1
2022-12-03T00:51:11.869Z,-0.1
2022-12-03T00:54:11.784Z,-0.1
2022-12-03T00:57:11.807Z,-0.1
2022-12-03T01:00:11.840Z,-0.1
2022-12-03T01:03:11.861Z,0
2022-12-03T01:06:12.022Z,-0.1
2022-12-03T01:09:11.798Z,-0.1
2022-12-03T01:12:11.852Z,0
2022-12-03T01:15:11.815Z,0
2022-12-03T01:18:11.710Z,-0.1
2022-12-03T01:21:11.787Z,-0.1
2022-12-03T01:24:11.832Z,0
2022-12-03T01:27:11.812Z,-0.1
2022-12-03T01:30:11.774Z,-0.1
2022-12-03T01:33:11.854Z,-0.1
2022-12-03T01:36:11.886Z,-0.1
2022-12-03T01:39:11.951Z,-0.1
2022-12-03T01:42:11.860Z,-0.1
2022-12-03T01:45:11.752Z,0
2022-12-03T01:48:11.869Z,0
2022-12-03T01:51:11.833Z,-0.1
2022-12-03T01:54:11.889Z,-0.1
2022-12-03T01:57:11.731Z,0
2022-12-03T02:00:11.891Z,-0.1
2022-12-03T02:03:11.845Z,-0.1
2022-12-03T02:06:11.809Z,-0.1
2022-12-03T02:09:11.729Z,-0.1
2022-12-03T02:12:11.802Z,0
2022-12-03T02:15:11.837Z,-0.1
2022-12-03T02:18:11.748Z,-0.1
2022-12-03T02:21:11.766Z,-0.1
2022-12-03T02:24:11.785Z,0
2022-12-03T02:27:11.889Z,0
2022-12-03T02:30:11.764Z,0
2022-12-03T02:33:11.835Z,0
2022-12-03T02:36:15.411Z,0
2022-12-03T02:39:11.767Z,0
2022-12-03T02:42:11.734Z,0
2022-12-03T02:45:17.012Z,0
2022-12-03T02:48:11.758Z,0
2022-12-03T02:51:11.813Z,0
2022-12-03T02:54:11.757Z,0
2022-12-03T02:57:11.832Z,0
2022-12-03T03:00:11.946Z,0
2022-12-03T03:03:11.837Z,0
2022-12-03T03:06:11.748Z,0.1
2022-12-03T03:09:11.781Z,0.1
2022-12-03T03:12:11.727Z,0.1
2022-12-03T03:15:11.771Z,0
2022-12-03T03:18:11.830Z,0.1
2022-12-03T03:21:11.744Z,0
2022-12-03T03:24:11.782Z,0
2022-12-03T03:27:11.720Z,0
2022-12-03T03:33:11.811Z,0
2022-12-03T03:36:11.767Z,0
2022-12-03T03:39:11.889Z,0
2022-12-03T03:42:11.870Z,0
2022-12-03T03:45:11.881Z,0
2022-12-03T03:48:11.760Z,0
2022-12-03T03:51:11.998Z,0
2022-12-03T03:54:12.016Z,-0.1
2022-12-03T03:57:11.787Z,0
2022-12-03T04:00:11.979Z,0
2022-12-03T04:03:11.831Z,0
2022-12-03T04:06:11.866Z,0
2022-12-03T04:09:12.120Z,0
2022-12-03T04:12:11.818Z,0
2022-12-03T04:15:11.737Z,0
2022-12-03T04:18:11.788Z,0
2022-12-03T04:21:11.794Z,0
2022-12-03T04:24:11.825Z,0
2022-12-03T04:27:11.779Z,0
2022-12-03T04:30:11.852Z,0
2022-12-03T04:33:11.813Z,-0.1
2022-12-03T04:36:11.960Z,-0.1
2022-12-03T04:39:11.766Z,-0.1
2022-12-03T04:42:11.814Z,-0.1
2022-12-03T04:45:11.783Z,-0.1
2022-12-03T04:48:11.948Z,-0.3
2022-12-03T04:51:11.782Z,-0.3
2022-12-03T04:54:11.969Z,-0.3
2022-12-03T04:57:11.732Z,-0.1
2022-12-03T05:00:12.002Z,-0.1
2022-12-03T05:03:12.348Z,-0.1
2022-12-03T05:06:11.746Z,-0.3
2022-12-03T05:09:11.969Z,-0.3
2022-12-03T05:12:11.805Z,-0.3
2022-12-03T05:15:11.938Z,-0.1
2022-12-03T05:18:11.766Z,-0.1
2022-12-03T05:21:11.761Z,-0.1
2022-12-03T05:24:11.996Z,-0.1
2022-12-03T05:27:11.789Z,-0.1
2022-12-03T05:30:11.862Z,-0.1
2022-12-03T05:33:11.773Z,-0.1
2022-12-03T05:36:11.814Z,-0.1
2022-12-03T05:39:11.859Z,-0.1
2022-12-03T05:42:11.798Z,-0.1
2022-12-03T05:45:11.826Z,-0.3
2022-12-03T05:48:11.847Z,-0.1
2022-12-03T05:51:11.728Z,-0.1
2022-12-03T05:54:11.858Z,-0.1
2022-12-03T05:57:11.803Z,-0.1
2022-12-03T06:00:11.844Z,-0.1
2022-12-03T06:03:13.253Z,-0.1
2022-12-03T06:06:11.777Z,-0.1
2022-12-03T06:09:12.089Z,-0.1
2022-12-03T06:12:11.808Z,-0.1
2022-12-03T06:15:11.829Z,-0.1
2022-12-03T06:18:11.813Z,-0.1
2022-12-03T06:21:11.748Z,-0.1
2022-12-03T06:24:11.835Z,-0.1
2022-12-03T06:27:11.737Z,-0.3
2022-12-03T06:30:11.865Z,-0.1
2022-12-03T06:33:11.840Z,-0.3
2022-12-03T06:36:11.875Z,-0.3
2022-12-03T06:39:12.057Z,-0.3
2022-12-03T06:42:11.884Z,-0.3
2022-12-03T06:45:11.721Z,-0.3
2022-12-03T06:48:11.750Z,-0.3
2022-12-03T06:51:11.679Z,-0.3
2022-12-03T06:54:11.802Z,-0.3
2022-12-03T06:57:11.786Z,-0.3
2022-12-03T07:00:11.919Z,-0.3
2022-12-03T07:03:12.562Z,-0.3
2022-12-03T07:06:11.985Z,-0.3
2022-12-03T07:09:11.857Z,-0.3
2022-12-03T07:12:11.823Z,-0.3
2022-12-03T07:15:11.890Z,-0.3
2022-12-03T07:18:11.756Z,-0.3
2022-12-03T07:21:11.856Z,-0.3
2022-12-03T07:24:11.831Z,-0.1
2022-12-03T07:27:11.827Z,-0.1
2022-12-03T07:30:12.097Z,0
2022-12-03T07:33:11.873Z,0
2022-12-03T07:36:11.800Z,0
2022-12-03T07:39:11.851Z,0
2022-12-03T07:42:11.803Z,0
2022-12-03T07:45:11.821Z,0
2022-12-03T07:48:11.881Z,0
2022-12-03T07:51:17.573Z,0
2022-12-03T07:54:11.831Z,0.1
2022-12-03T07:57:13.182Z,0.1
2022-12-03T08:00:12.041Z,0.1
2022-12-03T08:03:11.841Z,0.3
2022-12-03T08:06:11.812Z,0.4
2022-12-03T08:09:18.397Z,0.5
2022-12-03T08:12:11.821Z,0.5
2022-12-03T08:15:12.629Z,0.5
2022-12-03T08:18:11.851Z,0.4
2022-12-03T08:21:11.766Z,0.5
2022-12-03T08:24:11.914Z,0.5
2022-12-03T08:27:11.741Z,0.6
2022-12-03T08:30:11.908Z,0.8
2022-12-03T08:33:11.774Z,1
2022-12-03T08:36:11.855Z,1.3
2022-12-03T08:39:11.924Z,1.5
2022-12-03T08:42:18.346Z,1.6
2022-12-03T08:45:11.750Z,1.6
2022-12-03T08:48:11.815Z,1.8
2022-12-03T08:51:11.810Z,1.9
2022-12-03T08:54:13.598Z,1.8
2022-12-03T08:57:11.776Z,1.8
2022-12-03T09:00:12.135Z,1.6
2022-12-03T09:03:11.875Z,1.6
2022-12-03T09:06:11.953Z,1.5
2022-12-03T09:09:18.043Z,1.6
2022-12-03T09:12:11.788Z,1.6
2022-12-03T09:15:11.788Z,1.8
2022-12-03T09:18:11.835Z,1.8
2022-12-03T09:21:11.824Z,1.8
2022-12-03T09:24:11.731Z,1.9
2022-12-03T09:27:11.744Z,2
2022-12-03T09:30:11.841Z,1.9
2022-12-03T09:33:11.843Z,1.9
2022-12-03T09:36:11.787Z,1.9
2022-12-03T09:39:11.807Z,1.8
2022-12-03T09:42:11.790Z,1.9
2022-12-03T09:45:11.849Z,1.9
2022-12-03T09:48:11.903Z,2
2022-12-03T09:51:11.799Z,2
2022-12-03T09:54:11.855Z,2
2022-12-03T09:57:11.970Z,2
2022-12-03T10:00:11.925Z,2
2022-12-03T10:03:11.773Z,1.9
2022-12-03T10:06:11.749Z,1.8
2022-12-03T10:09:11.819Z,1.6
2022-12-03T10:12:12.013Z,1.5
2022-12-03T10:15:11.781Z,1.4
2022-12-03T10:18:11.836Z,1.4
2022-12-03T10:21:11.784Z,1.5
2022-12-03T10:24:11.755Z,1.5
2022-12-03T10:27:11.790Z,1.8
2022-12-03T10:30:11.891Z,1.9
2022-12-03T10:33:18.618Z,2.1
2022-12-03T10:36:11.797Z,2
2022-12-03T10:39:11.773Z,2.1
2022-12-03T10:42:11.858Z,2.1
2022-12-03T10:45:11.859Z,2.2
2022-12-03T10:48:12.055Z,2.5
2022-12-03T10:51:11.790Z,2.5
2022-12-03T10:54:11.930Z,2.5
2022-12-03T10:57:11.787Z,2.5
2022-12-03T11:00:11.920Z,2.5
2022-12-03T11:03:12.045Z,2.5
2022-12-03T11:06:11.848Z,2.7
2022-12-03T11:09:20.114Z,2.9
2022-12-03T11:12:11.847Z,3
2022-12-03T11:15:11.831Z,3.1
2022-12-03T11:18:12.001Z,2.9
2022-12-03T11:21:11.895Z,2.9
2022-12-03T11:24:11.764Z,2.7
2022-12-03T11:27:11.798Z,2.7
2022-12-03T11:30:11.793Z,2.6
2022-12-03T11:33:11.827Z,2.6
2022-12-03T11:36:11.933Z,2.5
2022-12-03T11:39:11.843Z,2.5
2022-12-03T11:42:11.816Z,2.5
2022-12-03T11:45:11.834Z,2.5
2022-12-03T11:48:11.833Z,2.4
2022-12-03T11:51:11.897Z,2.4
2022-12-03T11:54:11.846Z,2.2
2022-12-03T11:57:11.835Z,2.1
2022-12-03T12:00:11.848Z,2
2022-12-03T12:03:12.569Z,2
2022-12-03T12:06:11.848Z,2
2022-12-03T12:09:11.804Z,2
2022-12-03T12:12:11.871Z,1.9
2022-12-03T12:15:11.796Z,1.8
2022-12-03T12:18:11.849Z,1.9
2022-12-03T12:21:11.795Z,1.9
2022-12-03T12:24:11.892Z,1.8
2022-12-03T12:27:11.821Z,1.6
2022-12-03T12:30:11.945Z,1.6
2022-12-03T12:33:11.755Z,1.6
2022-12-03T12:36:11.844Z,1.6
2022-12-03T12:39:12.019Z,1.6
2022-12-03T12:42:11.780Z,1.6
2022-12-03T12:45:11.825Z,1.9
2022-12-03T12:48:11.795Z,1.9
2022-12-03T12:51:11.816Z,2
2022-12-03T12:54:11.786Z,2.1
2022-12-03T12:57:11.786Z,2.1
2022-12-03T13:00:12.143Z,2
2022-12-03T13:03:12.074Z,1.9
2022-12-03T13:06:11.959Z,1.9
2022-12-03T13:09:11.730Z,1.8
2022-12-03T13:12:11.867Z,1.6
2022-12-03T13:15:11.950Z,1.6
2022-12-03T13:18:11.907Z,1.6
2022-12-03T13:21:11.886Z,1.8
2022-12-03T13:24:11.849Z,1.8
2022-12-03T13:27:11.872Z,1.6
2022-12-03T13:30:12.035Z,1.6
2022-12-03T13:33:11.838Z,1.5
2022-12-03T13:36:11.922Z,1.5
2022-12-03T13:39:11.956Z,1.4
2022-12-03T13:42:11.856Z,1.3
2022-12-03T13:45:11.844Z,1.3
2022-12-03T13:48:11.841Z,1.1
2022-12-03T13:51:11.769Z,1
2022-12-03T13:54:18.705Z,1
2022-12-03T13:57:11.968Z,1
2022-12-03T14:00:11.906Z,0.9
2022-12-03T14:03:11.901Z,1
2022-12-03T14:06:11.960Z,1
2022-12-03T14:09:11.769Z,0.9
2022-12-03T14:12:11.817Z,0.9
2022-12-03T14:15:11.841Z,0.9
2022-12-03T14:18:11.804Z,0.9
2022-12-03T14:21:11.807Z,0.9
2022-12-03T14:24:11.777Z,0.8
2022-12-03T14:27:11.911Z,0.8
2022-12-03T14:30:11.965Z,0.8
2022-12-03T14:33:11.828Z,0.6
2022-12-03T14:36:11.927Z,0.6
2022-12-03T14:39:11.795Z,0.5
2022-12-03T14:42:11.846Z,0.5
2022-12-03T14:45:11.848Z,0.5
2022-12-03T14:48:11.837Z,0.4
2022-12-03T14:51:11.800Z,0.4
2022-12-03T14:54:11.757Z,0.4
2022-12-03T14:57:12.024Z,0.4
2022-12-03T15:00:12.007Z,0.4
2022-12-03T15:03:12.285Z,0.4
2022-12-03T15:06:12.002Z,0.3
2022-12-03T15:09:11.934Z,0.3
2022-12-03T15:12:11.757Z,0.3
2022-12-03T15:15:11.748Z,0.3
2022-12-03T15:18:11.798Z,0.3
2022-12-03T15:21:11.777Z,0.3
2022-12-03T15:24:11.834Z,0.1
2022-12-03T15:27:11.755Z,0.1
2022-12-03T15:30:11.881Z,0.1
2022-12-03T15:33:11.725Z,0.1
2022-12-03T15:36:11.826Z,0.1
2022-12-03T15:39:11.736Z,0.1
2022-12-03T15:42:11.888Z,0.1
2022-12-03T15:45:17.814Z,0.1
2022-12-03T15:48:11.843Z,0.1
2022-12-03T15:51:11.870Z,0.1
2022-12-03T15:54:11.790Z,0
2022-12-03T15:57:11.852Z,0
2022-12-03T16:00:11.715Z,0
2022-12-03T16:03:12.613Z,0.1
2022-12-03T16:06:11.907Z,0.1
2022-12-03T16:09:11.879Z,0.1
2022-12-03T16:12:11.872Z,0.1
2022-12-03T16:15:11.850Z,0.1
2022-12-03T16:18:11.713Z,0.1
2022-12-03T16:21:11.781Z,0.1
2022-12-03T16:24:11.849Z,0.1
2022-12-03T16:27:11.956Z,0.1
2022-12-03T16:30:11.805Z,0.1
2022-12-03T16:33:11.791Z,0.1
2022-12-03T16:36:11.747Z,0.1
2022-12-03T16:39:11.785Z,0.1
2022-12-03T16:42:21.628Z,0.1
2022-12-03T16:45:11.751Z,0.1
2022-12-03T16:48:11.806Z,0.1
2022-12-03T16:51:11.733Z,0.1
2022-12-03T16:54:11.881Z,0
2022-12-03T16:57:11.797Z,0
2022-12-03T17:00:12.242Z,0.1
2022-12-03T17:03:12.441Z,0.1
2022-12-03T17:06:11.849Z,0
2022-12-03T17:09:11.761Z,0
2022-12-03T17:12:11.980Z,0
2022-12-03T17:15:11.890Z,0
2022-12-03T17:18:11.856Z,0
2022-12-03T17:21:11.857Z,0
2022-12-03T17:24:11.905Z,0
2022-12-03T17:27:11.866Z,0.1
2022-12-03T17:30:12.032Z,0
2022-12-03T17:33:11.773Z,0
2022-12-03T17:36:11.788Z,0
2022-12-03T17:39:11.946Z,0
2022-12-03T17:42:11.873Z,0
2022-12-03T17:45:11.758Z,0
2022-12-03T17:48:11.872Z,0
2022-12-03T17:51:11.762Z,0
2022-12-03T17:54:11.859Z,0.1
2022-12-03T17:57:11.893Z,0
2022-12-03T18:00:11.903Z,0
2022-12-03T18:03:11.802Z,0
2022-12-03T18:06:11.896Z,0
2022-12-03T18:09:11.734Z,0
2022-12-03T18:12:11.877Z,0
2022-12-03T18:15:11.882Z,0
2022-12-03T18:18:11.808Z,0.1
2022-12-03T18:21:11.851Z,0.1
2022-12-03T18:24:11.744Z,0.1
2022-12-03T18:27:12.513Z,0.1
2022-12-03T18:30:12.069Z,0.1
2022-12-03T18:33:11.803Z,0.1
2022-12-03T18:36:19.353Z,0.1
2022-12-03T18:39:11.735Z,0.1
2022-12-03T18:42:11.901Z,0.1
2022-12-03T18:45:11.803Z,0.1
2022-12-03T18:48:12.130Z,0.1
2022-12-03T18:51:11.827Z,0.1
2022-12-03T18:54:11.949Z,0.1
2022-12-03T18:57:11.884Z,0.1
2022-12-03T19:00:18.396Z,0.1
2022-12-03T19:03:16.111Z,0.1
2022-12-03T19:06:18.531Z,0.1
2022-12-03T19:09:11.861Z,0.1
2022-12-03T19:12:19.229Z,0.1
2022-12-03T19:15:11.998Z,0.1
2022-12-03T19:18:12.170Z,0.1
2022-12-03T19:21:11.828Z,0.1
2022-12-03T19:24:36.230Z,0
2022-12-03T19:27:11.859Z,0
2022-12-03T19:30:11.765Z,0
2022-12-03T19:33:17.978Z,0
2022-12-03T19:36:11.974Z,0
2022-12-03T19:39:11.814Z,0
2022-12-03T19:42:11.905Z,0
2022-12-03T19:45:11.861Z,0
2022-12-03T19:48:11.764Z,0
2022-12-03T19:51:46.014Z,0
2022-12-03T19:54:11.820Z,0
2022-12-03T19:57:11.745Z,0
2022-12-03T20:00:11.885Z,-0.1
2022-12-03T20:03:12.608Z,0
2022-12-03T20:06:11.916Z,0
2022-12-03T20:09:11.745Z,0
2022-12-03T20:12:11.880Z,0
2022-12-03T20:15:11.825Z,0
2022-12-03T20:18:11.871Z,0
2022-12-03T20:21:11.922Z,0
2022-12-03T20:24:11.862Z,0.1
2022-12-03T20:27:11.780Z,0.1
2022-12-03T20:30:11.868Z,0.1
2022-12-03T20:33:11.713Z,0.1
2022-12-03T20:36:11.850Z,0.1
2022-12-03T20:39:11.814Z,0.1
2022-12-03T20:42:11.906Z,0.1
2022-12-03T20:45:11.768Z,0.1
2022-12-03T20:48:11.885Z,0.1
2022-12-03T20:51:11.748Z,0.1
2022-12-03T20:54:11.853Z,0.1
2022-12-03T20:57:11.770Z,0.1
2022-12-03T21:00:11.947Z,0.1
2022-12-03T21:03:12.404Z,0.1
2022-12-03T21:06:11.986Z,0.1
2022-12-03T21:09:11.791Z,0.1
2022-12-03T21:12:11.840Z,0.3
2022-12-03T21:15:11.843Z,0.1
2022-12-03T21:18:12.212Z,0.1
2022-12-03T21:21:11.862Z,0.1
2022-12-03T21:24:11.783Z,0.1
2022-12-03T21:27:13.612Z,0.1
2022-12-03T21:30:11.829Z,0.1
2022-12-03T21:33:11.821Z,0.1
2022-12-03T21:36:11.800Z,0.1
2022-12-03T21:39:11.949Z,0.1
2022-12-03T21:42:47.044Z,0.1
2022-12-03T21:45:12.361Z,0.1
2022-12-03T21:48:12.220Z,0.1
2022-12-03T21:51:11.719Z,0.1
2022-12-03T21:54:12.143Z,0.1
2022-12-03T21:57:11.760Z,0.1
2022-12-03T22:00:11.936Z,0.1
2022-12-03T22:03:12.405Z,0.1
2022-12-03T22:06:11.908Z,0.1
2022-12-03T22:09:11.786Z,0.1
2022-12-03T22:12:11.918Z,0.1
2022-12-03T22:15:19.512Z,0.1
2022-12-03T22:18:11.873Z,0.1
2022-12-03T22:21:11.817Z,0.1
2022-12-03T22:24:11.773Z,0.1
2022-12-03T22:27:11.834Z,0.1
2022-12-03T22:30:11.901Z,0.1
2022-12-03T22:33:11.717Z,0.1
2022-12-03T22:36:20.389Z,0.1
2022-12-03T22:39:11.817Z,0.1
2022-12-03T22:42:11.952Z,0.1
2022-12-03T22:45:11.903Z,0.1
2022-12-03T22:48:11.718Z,0.1
2022-12-03T22:51:11.858Z,0.1
2022-12-03T22:54:11.911Z,0.1
2022-12-03T22:57:11.802Z,0.1
2022-12-03T23:00:12.263Z,0.3
2022-12-03T23:03:12.604Z,0.3
2022-12-03T23:06:11.961Z,0.3
2022-12-03T23:09:11.855Z,0.3
2022-12-03T23:12:11.769Z,0.3
2022-12-03T23:15:11.944Z,0.3
2022-12-03T23:18:11.767Z,0.3
2022-12-03T23:21:11.747Z,0.3
2022-12-03T23:24:11.840Z,0.3
2022-12-03T23:27:11.701Z,0.3
2022-12-03T23:30:11.860Z,0.3
2022-12-03T23:33:11.857Z,0.3
2022-12-03T23:36:11.757Z,0.3
2022-12-03T23:39:11.746Z,0.3
2022-12-03T23:42:11.737Z,0.3
2022-12-03T23:45:11.795Z,0.3
2022-12-03T23:48:11.851Z,0.3
2022-12-03T23:51:11.754Z,0.3
2022-12-03T23:54:11.896Z,0.3
2022-12-03T23:57:11.836Z,0.3
